sensor_id;sensor_type;location;lat;lon;timestamp;P1;durP1;ratioP1;P2;durP2;ratioP2
47239;SDS011;32978;53.586;10.052;2023-05-10T00:03:04;8.25;;;5.28;;
47239;SDS011;32978;53.586;10.052;2023-05-10T00:08:01;6.50;;;5.20;;
47239;SDS011;32978;53.586;10.052;2023-05-10T00:12:57;6.78;;;5.18;;
47239;SDS011;32978;53.586;10.052;2023-05-10T00:17:54;6.10;;;5.30;;
47239;SDS011;32978;53.586;10.052;2023-05-10T00:22:51;8.15;;;5.20;;
47239;SDS011;32978;53.586;10.052;2023-05-10T00:27:48;7.38;;;5.50;;
47239;SDS011;32978;53.586;10.052;2023-05-10T00:32:45;7.32;;;5.20;;
47239;SDS011;32978;53.586;10.052;2023-05-10T00:37:44;6.20;;;5.20;;
47239;SDS011;32978;53.586;10.052;2023-05-10T00:42:41;8.80;;;5.53;;
47239;SDS011;32978;53.586;10.052;2023-05-10T00:47:38;7.15;;;5.13;;
47239;SDS011;32978;53.586;10.052;2023-05-10T00:52:35;11.02;;;5.43;;
47239;SDS011;32978;53.586;10.052;2023-05-10T00:57:31;8.27;;;5.22;;
47239;SDS011;32978;53.586;10.052;2023-05-10T01:02:28;6.47;;;5.18;;
47239;SDS011;32978;53.586;10.052;2023-05-10T01:07:25;6.82;;;4.95;;
47239;SDS011;32978;53.586;10.052;2023-05-10T01:12:21;7.18;;;5.03;;
47239;SDS011;32978;53.586;10.052;2023-05-10T01:17:18;7.55;;;6.25;;
47239;SDS011;32978;53.586;10.052;2023-05-10T01:27:46;6.00;;;5.40;;
47239;SDS011;32978;53.586;10.052;2023-05-10T01:32:55;8.63;;;5.03;;
47239;SDS011;32978;53.586;10.052;2023-05-10T01:42:53;10.50;;;5.35;;
47239;SDS011;32978;53.586;10.052;2023-05-10T01:47:54;8.63;;;5.65;;
47239;SDS011;32978;53.586;10.052;2023-05-10T01:52:56;5.57;;;4.95;;
47239;SDS011;32978;53.586;10.052;2023-05-10T01:58:01;8.68;;;5.00;;
47239;SDS011;32978;53.586;10.052;2023-05-10T02:03:03;8.52;;;5.55;;
47239;SDS011;32978;53.586;10.052;2023-05-10T02:08:05;8.82;;;5.93;;
47239;SDS011;32978;53.586;10.052;2023-05-10T02:13:02;9.65;;;5.40;;
47239;SDS011;32978;53.586;10.052;2023-05-10T02:18:00;7.60;;;5.53;;
47239;SDS011;32978;53.586;10.052;2023-05-10T02:22:58;7.10;;;5.32;;
47239;SDS011;32978;53.586;10.052;2023-05-10T02:27:57;9.20;;;5.70;;
47239;SDS011;32978;53.586;10.052;2023-05-10T02:32:56;6.43;;;5.55;;
47239;SDS011;32978;53.586;10.052;2023-05-10T02:37:53;7.88;;;5.72;;
47239;SDS011;32978;53.586;10.052;2023-05-10T02:42:50;7.45;;;5.65;;
47239;SDS011;32978;53.586;10.052;2023-05-10T02:47:50;7.13;;;5.47;;
47239;SDS011;32978;53.586;10.052;2023-05-10T02:52:47;7.80;;;5.72;;
47239;SDS011;32978;53.586;10.052;2023-05-10T02:57:56;6.38;;;5.78;;
47239;SDS011;32978;53.586;10.052;2023-05-10T03:02:55;7.00;;;5.47;;
47239;SDS011;32978;53.586;10.052;2023-05-10T03:07:55;9.80;;;6.05;;
47239;SDS011;32978;53.586;10.052;2023-05-10T03:23:27;7.47;;;5.40;;
47239;SDS011;32978;53.586;10.052;2023-05-10T03:28:29;7.80;;;5.65;;
47239;SDS011;32978;53.586;10.052;2023-05-10T03:46:06;6.18;;;5.35;;
47239;SDS011;32978;53.586;10.052;2023-05-10T03:51:14;6.80;;;5.82;;
47239;SDS011;32978;53.586;10.052;2023-05-10T03:56:10;7.22;;;5.82;;
47239;SDS011;32978;53.586;10.052;2023-05-10T04:01:07;6.07;;;5.30;;
47239;SDS011;32978;53.586;10.052;2023-05-10T04:06:03;10.70;;;6.40;;
47239;SDS011;32978;53.586;10.052;2023-05-10T04:11:07;6.47;;;5.70;;
47239;SDS011;32978;53.586;10.052;2023-05-10T04:16:08;7.32;;;6.25;;
47239;SDS011;32978;53.586;10.052;2023-05-10T04:21:10;7.05;;;5.82;;
47239;SDS011;32978;53.586;10.052;2023-05-10T04:26:08;7.43;;;6.15;;
47239;SDS011;32978;53.586;10.052;2023-05-10T04:31:05;7.00;;;6.30;;
47239;SDS011;32978;53.586;10.052;2023-05-10T04:36:04;13.30;;;6.45;;
47239;SDS011;32978;53.586;10.052;2023-05-10T04:41:10;7.55;;;5.72;;
47239;SDS011;32978;53.586;10.052;2023-05-10T04:46:07;6.63;;;6.03;;
47239;SDS011;32978;53.586;10.052;2023-05-10T04:51:04;7.13;;;6.25;;
47239;SDS011;32978;53.586;10.052;2023-05-10T04:56:02;6.85;;;6.15;;
47239;SDS011;32978;53.586;10.052;2023-05-10T05:01:05;9.40;;;6.47;;
47239;SDS011;32978;53.586;10.052;2023-05-10T05:06:03;7.90;;;6.40;;
47239;SDS011;32978;53.586;10.052;2023-05-10T05:11:00;10.20;;;6.57;;
47239;SDS011;32978;53.586;10.052;2023-05-10T05:15:56;12.50;;;6.93;;
47239;SDS011;32978;53.586;10.052;2023-05-10T05:20:53;7.72;;;6.60;;
47239;SDS011;32978;53.586;10.052;2023-05-10T05:25:49;7.13;;;6.43;;
47239;SDS011;32978;53.586;10.052;2023-05-10T05:30:47;7.95;;;6.53;;
47239;SDS011;32978;53.586;10.052;2023-05-10T05:35:44;11.40;;;6.80;;
47239;SDS011;32978;53.586;10.052;2023-05-10T05:40:46;8.50;;;7.30;;
47239;SDS011;32978;53.586;10.052;2023-05-10T05:45:43;8.77;;;7.82;;
47239;SDS011;32978;53.586;10.052;2023-05-10T05:50:39;10.10;;;7.50;;
47239;SDS011;32978;53.586;10.052;2023-05-10T05:55:37;9.05;;;7.65;;
47239;SDS011;32978;53.586;10.052;2023-05-10T06:00:33;7.78;;;6.97;;
47239;SDS011;32978;53.586;10.052;2023-05-10T06:05:30;9.60;;;6.97;;
47239;SDS011;32978;53.586;10.052;2023-05-10T06:10:26;8.15;;;7.35;;
47239;SDS011;32978;53.586;10.052;2023-05-10T06:15:23;8.02;;;7.22;;
47239;SDS011;32978;53.586;10.052;2023-05-10T06:20:19;9.40;;;7.57;;
47239;SDS011;32978;53.586;10.052;2023-05-10T06:25:16;8.05;;;7.25;;
47239;SDS011;32978;53.586;10.052;2023-05-10T06:30:14;8.25;;;7.55;;
47239;SDS011;32978;53.586;10.052;2023-05-10T06:35:11;8.18;;;7.40;;
47239;SDS011;32978;53.586;10.052;2023-05-10T06:40:07;11.50;;;8.50;;
47239;SDS011;32978;53.586;10.052;2023-05-10T06:45:05;8.10;;;7.35;;
47239;SDS011;32978;53.586;10.052;2023-05-10T06:50:02;8.68;;;7.50;;
47239;SDS011;32978;53.586;10.052;2023-05-10T06:54:59;8.57;;;7.40;;
47239;SDS011;32978;53.586;10.052;2023-05-10T06:59:56;8.98;;;6.78;;
47239;SDS011;32978;53.586;10.052;2023-05-10T07:04:53;8.98;;;8.10;;
47239;SDS011;32978;53.586;10.052;2023-05-10T07:09:50;9.48;;;8.02;;
47239;SDS011;32978;53.586;10.052;2023-05-10T07:14:47;8.63;;;7.80;;
47239;SDS011;32978;53.586;10.052;2023-05-10T07:19:43;9.15;;;8.25;;
47239;SDS011;32978;53.586;10.052;2023-05-10T07:24:40;8.30;;;7.60;;
47239;SDS011;32978;53.586;10.052;2023-05-10T07:29:36;8.80;;;7.88;;
47239;SDS011;32978;53.586;10.052;2023-05-10T07:34:36;9.40;;;8.60;;
47239;SDS011;32978;53.586;10.052;2023-05-10T07:39:32;9.30;;;8.40;;
47239;SDS011;32978;53.586;10.052;2023-05-10T07:44:29;9.48;;;8.48;;
47239;SDS011;32978;53.586;10.052;2023-05-10T07:49:25;10.05;;;8.45;;
47239;SDS011;32978;53.586;10.052;2023-05-10T07:54:22;11.32;;;9.20;;
47239;SDS011;32978;53.586;10.052;2023-05-10T07:59:18;9.27;;;8.48;;
47239;SDS011;32978;53.586;10.052;2023-05-10T08:04:15;9.38;;;8.50;;
47239;SDS011;32978;53.586;10.052;2023-05-10T08:09:12;9.20;;;8.40;;
47239;SDS011;32978;53.586;10.052;2023-05-10T08:14:09;10.15;;;8.52;;
47239;SDS011;32978;53.586;10.052;2023-05-10T08:19:05;15.52;;;8.90;;
47239;SDS011;32978;53.586;10.052;2023-05-10T08:24:02;9.73;;;8.75;;
47239;SDS011;32978;53.586;10.052;2023-05-10T08:28:59;9.68;;;8.77;;
47239;SDS011;32978;53.586;10.052;2023-05-10T08:33:55;9.55;;;8.65;;
47239;SDS011;32978;53.586;10.052;2023-05-10T08:38:51;10.02;;;8.30;;
47239;SDS011;32978;53.586;10.052;2023-05-10T08:43:49;9.20;;;7.43;;
47239;SDS011;32978;53.586;10.052;2023-05-10T08:48:47;10.88;;;8.05;;
47239;SDS011;32978;53.586;10.052;2023-05-10T08:53:46;8.23;;;7.43;;
47239;SDS011;32978;53.586;10.052;2023-05-10T08:58:43;8.32;;;7.53;;
47239;SDS011;32978;53.586;10.052;2023-05-10T09:03:40;10.63;;;7.13;;
47239;SDS011;32978;53.586;10.052;2023-05-10T09:08:37;8.50;;;7.70;;
47239;SDS011;32978;53.586;10.052;2023-05-10T09:13:33;9.13;;;7.55;;
47239;SDS011;32978;53.586;10.052;2023-05-10T09:18:32;10.63;;;7.82;;
47239;SDS011;32978;53.586;10.052;2023-05-10T09:23:29;9.13;;;7.55;;
47239;SDS011;32978;53.586;10.052;2023-05-10T09:28:31;9.13;;;7.80;;
47239;SDS011;32978;53.586;10.052;2023-05-10T09:33:28;9.45;;;7.28;;
47239;SDS011;32978;53.586;10.052;2023-05-10T09:38:24;8.18;;;7.47;;
47239;SDS011;32978;53.586;10.052;2023-05-10T09:43:21;8.25;;;7.53;;
47239;SDS011;32978;53.586;10.052;2023-05-10T09:48:17;9.20;;;7.47;;
47239;SDS011;32978;53.586;10.052;2023-05-10T09:53:14;8.57;;;7.78;;
47239;SDS011;32978;53.586;10.052;2023-05-10T09:58:12;11.45;;;7.82;;
47239;SDS011;32978;53.586;10.052;2023-05-10T10:03:14;9.98;;;9.05;;
47239;SDS011;32978;53.586;10.052;2023-05-10T10:08:11;10.55;;;9.55;;
47239;SDS011;32978;53.586;10.052;2023-05-10T10:13:09;11.23;;;9.40;;
47239;SDS011;32978;53.586;10.052;2023-05-10T10:18:06;10.43;;;9.52;;
47239;SDS011;32978;53.586;10.052;2023-05-10T10:23:07;10.15;;;9.15;;
47239;SDS011;32978;53.586;10.052;2023-05-10T10:38:59;14.13;;;12.15;;
47239;SDS011;32978;53.586;10.052;2023-05-10T10:49:18;14.13;;;11.45;;
47239;SDS011;32978;53.586;10.052;2023-05-10T10:54:21;13.70;;;12.23;;
47239;SDS011;32978;53.586;10.052;2023-05-10T10:59:27;12.07;;;10.88;;
47239;SDS011;32978;53.586;10.052;2023-05-10T11:04:40;12.45;;;11.18;;
47239;SDS011;32978;53.586;10.052;2023-05-10T11:09:43;13.00;;;11.48;;
47239;SDS011;32978;53.586;10.052;2023-05-10T11:14:39;12.30;;;11.20;;
47239;SDS011;32978;53.586;10.052;2023-05-10T11:19:36;13.43;;;12.18;;
47239;SDS011;32978;53.586;10.052;2023-05-10T11:24:35;13.48;;;11.68;;
47239;SDS011;32978;53.586;10.052;2023-05-10T11:29:31;11.98;;;10.88;;
47239;SDS011;32978;53.586;10.052;2023-05-10T11:34:28;16.55;;;11.90;;
47239;SDS011;32978;53.586;10.052;2023-05-10T11:39:27;13.15;;;11.88;;
47239;SDS011;32978;53.586;10.052;2023-05-10T11:44:31;13.05;;;11.85;;
47239;SDS011;32978;53.586;10.052;2023-05-10T11:49:28;14.05;;;12.73;;
47239;SDS011;32978;53.586;10.052;2023-05-10T11:54:25;15.40;;;13.75;;
47239;SDS011;32978;53.586;10.052;2023-05-10T11:59:21;13.43;;;12.15;;
47239;SDS011;32978;53.586;10.052;2023-05-10T12:04:18;15.15;;;13.48;;
47239;SDS011;32978;53.586;10.052;2023-05-10T12:09:15;13.73;;;12.23;;
47239;SDS011;32978;53.586;10.052;2023-05-10T12:14:18;13.68;;;12.48;;
47239;SDS011;32978;53.586;10.052;2023-05-10T12:19:19;14.70;;;13.20;;
47239;SDS011;32978;53.586;10.052;2023-05-10T12:24:18;14.98;;;13.50;;
47239;SDS011;32978;53.586;10.052;2023-05-10T12:29:18;15.77;;;14.10;;
47239;SDS011;32978;53.586;10.052;2023-05-10T12:34:22;15.18;;;13.77;;
47239;SDS011;32978;53.586;10.052;2023-05-10T12:39:22;13.25;;;12.05;;
47239;SDS011;32978;53.586;10.052;2023-05-10T12:44:18;13.52;;;12.23;;
47239;SDS011;32978;53.586;10.052;2023-05-10T12:49:15;15.77;;;14.25;;
47239;SDS011;32978;53.586;10.052;2023-05-10T12:54:12;16.08;;;14.38;;
47239;SDS011;32978;53.586;10.052;2023-05-10T12:59:09;14.40;;;13.10;;
47239;SDS011;32978;53.586;10.052;2023-05-10T13:04:05;15.38;;;13.85;;
47239;SDS011;32978;53.586;10.052;2023-05-10T13:09:02;12.15;;;11.05;;
47239;SDS011;32978;53.586;10.052;2023-05-10T13:13:58;12.73;;;11.38;;
47239;SDS011;32978;53.586;10.052;2023-05-10T13:18:55;13.73;;;12.27;;
47239;SDS011;32978;53.586;10.052;2023-05-10T13:23:54;11.32;;;10.32;;
47239;SDS011;32978;53.586;10.052;2023-05-10T13:28:51;11.57;;;10.57;;
47239;SDS011;32978;53.586;10.052;2023-05-10T13:33:48;11.68;;;10.57;;
47239;SDS011;32978;53.586;10.052;2023-05-10T13:38:44;11.43;;;10.40;;
47239;SDS011;32978;53.586;10.052;2023-05-10T13:43:41;12.30;;;11.18;;
47239;SDS011;32978;53.586;10.052;2023-05-10T13:48:38;11.98;;;10.55;;
47239;SDS011;32978;53.586;10.052;2023-05-10T13:53:34;12.32;;;11.10;;
47239;SDS011;32978;53.586;10.052;2023-05-10T13:58:31;13.23;;;12.05;;
47239;SDS011;32978;53.586;10.052;2023-05-10T14:03:27;11.82;;;10.85;;
47239;SDS011;32978;53.586;10.052;2023-05-10T14:08:24;11.43;;;10.43;;
47239;SDS011;32978;53.586;10.052;2023-05-10T14:13:20;12.32;;;11.05;;
47239;SDS011;32978;53.586;10.052;2023-05-10T14:18:17;11.88;;;10.73;;
47239;SDS011;32978;53.586;10.052;2023-05-10T14:23:13;12.32;;;11.23;;
47239;SDS011;32978;53.586;10.052;2023-05-10T14:28:10;11.73;;;10.82;;
47239;SDS011;32978;53.586;10.052;2023-05-10T14:33:08;11.35;;;10.23;;
47239;SDS011;32978;53.586;10.052;2023-05-10T14:38:04;11.35;;;10.45;;
47239;SDS011;32978;53.586;10.052;2023-05-10T14:43:01;10.68;;;9.70;;
47239;SDS011;32978;53.586;10.052;2023-05-10T14:47:57;10.52;;;9.52;;
47239;SDS011;32978;53.586;10.052;2023-05-10T14:52:57;9.63;;;8.88;;
47239;SDS011;32978;53.586;10.052;2023-05-10T14:57:55;11.00;;;9.98;;
47239;SDS011;32978;53.586;10.052;2023-05-10T15:02:51;10.77;;;9.60;;
47239;SDS011;32978;53.586;10.052;2023-05-10T15:07:48;11.05;;;10.00;;
47239;SDS011;32978;53.586;10.052;2023-05-10T15:12:45;10.85;;;9.90;;
47239;SDS011;32978;53.586;10.052;2023-05-10T15:17:41;11.10;;;10.00;;
47239;SDS011;32978;53.586;10.052;2023-05-10T15:22:38;10.68;;;9.57;;
47239;SDS011;32978;53.586;10.052;2023-05-10T15:27:34;10.25;;;9.30;;
47239;SDS011;32978;53.586;10.052;2023-05-10T15:32:31;10.82;;;9.73;;
47239;SDS011;32978;53.586;10.052;2023-05-10T15:37:27;10.02;;;9.13;;
47239;SDS011;32978;53.586;10.052;2023-05-10T15:42:24;10.32;;;9.43;;
47239;SDS011;32978;53.586;10.052;2023-05-10T15:47:20;9.95;;;9.05;;
47239;SDS011;32978;53.586;10.052;2023-05-10T15:52:17;9.90;;;9.00;;
47239;SDS011;32978;53.586;10.052;2023-05-10T15:57:14;9.88;;;9.00;;
47239;SDS011;32978;53.586;10.052;2023-05-10T16:02:11;9.43;;;8.63;;
47239;SDS011;32978;53.586;10.052;2023-05-10T16:07:07;11.20;;;10.20;;
47239;SDS011;32978;53.586;10.052;2023-05-10T16:12:06;10.18;;;9.15;;
47239;SDS011;32978;53.586;10.052;2023-05-10T16:17:03;10.07;;;9.18;;
47239;SDS011;32978;53.586;10.052;2023-05-10T16:22:00;10.90;;;10.00;;
47239;SDS011;32978;53.586;10.052;2023-05-10T16:26:58;11.40;;;10.43;;
47239;SDS011;32978;53.586;10.052;2023-05-10T16:31:54;13.07;;;11.88;;
47239;SDS011;32978;53.586;10.052;2023-05-10T16:36:51;12.88;;;11.68;;
47239;SDS011;32978;53.586;10.052;2023-05-10T16:41:48;12.00;;;11.00;;
47239;SDS011;32978;53.586;10.052;2023-05-10T16:46:45;12.77;;;11.43;;
47239;SDS011;32978;53.586;10.052;2023-05-10T16:51:42;13.30;;;12.10;;
47239;SDS011;32978;53.586;10.052;2023-05-10T16:56:38;12.75;;;11.65;;
47239;SDS011;32978;53.586;10.052;2023-05-10T17:01:35;12.48;;;11.27;;
47239;SDS011;32978;53.586;10.052;2023-05-10T17:06:32;12.80;;;11.52;;
47239;SDS011;32978;53.586;10.052;2023-05-10T17:11:28;12.05;;;10.85;;
47239;SDS011;32978;53.586;10.052;2023-05-10T17:16:25;13.15;;;11.95;;
47239;SDS011;32978;53.586;10.052;2023-05-10T17:21:22;11.75;;;10.73;;
47239;SDS011;32978;53.586;10.052;2023-05-10T17:26:18;11.05;;;10.05;;
47239;SDS011;32978;53.586;10.052;2023-05-10T17:31:15;11.82;;;10.65;;
47239;SDS011;32978;53.586;10.052;2023-05-10T17:36:12;10.70;;;9.85;;
47239;SDS011;32978;53.586;10.052;2023-05-10T17:41:08;11.90;;;10.75;;
47239;SDS011;32978;53.586;10.052;2023-05-10T17:46:05;10.73;;;9.82;;
47239;SDS011;32978;53.586;10.052;2023-05-10T17:51:02;11.23;;;10.23;;
47239;SDS011;32978;53.586;10.052;2023-05-10T17:55:59;11.95;;;10.85;;
47239;SDS011;32978;53.586;10.052;2023-05-10T18:00:56;12.48;;;11.45;;
47239;SDS011;32978;53.586;10.052;2023-05-10T18:05:53;13.02;;;11.93;;
47239;SDS011;32978;53.586;10.052;2023-05-10T18:10:52;12.68;;;11.50;;
47239;SDS011;32978;53.586;10.052;2023-05-10T18:15:51;12.82;;;11.63;;
47239;SDS011;32978;53.586;10.052;2023-05-10T18:20:48;12.45;;;11.30;;
47239;SDS011;32978;53.586;10.052;2023-05-10T18:25:51;12.50;;;11.40;;
47239;SDS011;32978;53.586;10.052;2023-05-10T18:30:48;13.23;;;11.93;;
47239;SDS011;32978;53.586;10.052;2023-05-10T18:35:46;14.15;;;11.77;;
47239;SDS011;32978;53.586;10.052;2023-05-10T18:40:46;15.25;;;13.82;;
47239;SDS011;32978;53.586;10.052;2023-05-10T18:45:45;14.50;;;12.90;;
47239;SDS011;32978;53.586;10.052;2023-05-10T18:50:42;11.90;;;10.70;;
47239;SDS011;32978;53.586;10.052;2023-05-10T18:55:38;12.25;;;11.05;;
47239;SDS011;32978;53.586;10.052;2023-05-10T19:00:35;13.20;;;11.68;;
47239;SDS011;32978;53.586;10.052;2023-05-10T19:05:31;13.52;;;12.13;;
47239;SDS011;32978;53.586;10.052;2023-05-10T19:10:28;17.48;;;11.75;;
47239;SDS011;32978;53.586;10.052;2023-05-10T19:15:24;14.02;;;12.57;;
47239;SDS011;32978;53.586;10.052;2023-05-10T19:20:21;13.30;;;11.98;;
47239;SDS011;32978;53.586;10.052;2023-05-10T19:25:18;12.40;;;11.20;;
47239;SDS011;32978;53.586;10.052;2023-05-10T19:30:15;12.50;;;11.30;;
47239;SDS011;32978;53.586;10.052;2023-05-10T19:35:12;12.07;;;11.07;;
47239;SDS011;32978;53.586;10.052;2023-05-10T19:40:13;11.35;;;10.25;;
47239;SDS011;32978;53.586;10.052;2023-05-10T19:45:13;11.23;;;10.13;;
47239;SDS011;32978;53.586;10.052;2023-05-10T19:50:12;9.80;;;8.90;;
47239;SDS011;32978;53.586;10.052;2023-05-10T19:55:13;11.23;;;10.32;;
47239;SDS011;32978;53.586;10.052;2023-05-10T20:00:19;9.90;;;9.00;;
47239;SDS011;32978;53.586;10.052;2023-05-10T20:05:16;10.40;;;9.50;;
47239;SDS011;32978;53.586;10.052;2023-05-10T20:10:13;10.82;;;9.82;;
47239;SDS011;32978;53.586;10.052;2023-05-10T20:15:10;11.90;;;10.80;;
47239;SDS011;32978;53.586;10.052;2023-05-10T20:20:07;11.25;;;10.25;;
47239;SDS011;32978;53.586;10.052;2023-05-10T20:25:04;11.43;;;10.43;;
47239;SDS011;32978;53.586;10.052;2023-05-10T20:30:00;11.25;;;10.27;;
47239;SDS011;32978;53.586;10.052;2023-05-10T20:34:57;12.25;;;11.13;;
47239;SDS011;32978;53.586;10.052;2023-05-10T20:39:54;11.57;;;10.57;;
47239;SDS011;32978;53.586;10.052;2023-05-10T20:44:50;12.13;;;11.02;;
47239;SDS011;32978;53.586;10.052;2023-05-10T20:49:47;12.55;;;11.35;;
47239;SDS011;32978;53.586;10.052;2023-05-10T20:54:44;13.52;;;12.23;;
47239;SDS011;32978;53.586;10.052;2023-05-10T20:59:40;13.98;;;12.57;;
47239;SDS011;32978;53.586;10.052;2023-05-10T21:04:37;13.38;;;12.07;;
47239;SDS011;32978;53.586;10.052;2023-05-10T21:09:34;15.15;;;12.95;;
47239;SDS011;32978;53.586;10.052;2023-05-10T21:14:30;14.88;;;13.32;;
47239;SDS011;32978;53.586;10.052;2023-05-10T21:19:27;15.07;;;12.32;;
47239;SDS011;32978;53.586;10.052;2023-05-10T21:24:23;15.40;;;13.18;;
47239;SDS011;32978;53.586;10.052;2023-05-10T21:29:20;16.08;;;14.05;;
47239;SDS011;32978;53.586;10.052;2023-05-10T21:34:16;17.15;;;13.85;;
47239;SDS011;32978;53.586;10.052;2023-05-10T21:39:13;18.27;;;15.02;;
47239;SDS011;32978;53.586;10.052;2023-05-10T21:44:12;20.63;;;16.70;;
47239;SDS011;32978;53.586;10.052;2023-05-10T21:49:08;21.13;;;16.10;;
47239;SDS011;32978;53.586;10.052;2023-05-10T21:54:04;19.83;;;16.52;;
47239;SDS011;32978;53.586;10.052;2023-05-10T21:59:08;24.63;;;18.65;;
47239;SDS011;32978;53.586;10.052;2023-05-10T22:04:05;21.75;;;16.08;;
47239;SDS011;32978;53.586;10.052;2023-05-10T22:09:01;22.50;;;16.52;;
47239;SDS011;32978;53.586;10.052;2023-05-10T22:13:57;23.77;;;17.50;;
47239;SDS011;32978;53.586;10.052;2023-05-10T22:18:54;22.20;;;16.30;;
47239;SDS011;32978;53.586;10.052;2023-05-10T22:23:51;20.35;;;13.82;;
47239;SDS011;32978;53.586;10.052;2023-05-10T22:28:47;18.13;;;13.50;;
47239;SDS011;32978;53.586;10.052;2023-05-10T22:33:43;22.05;;;14.63;;
47239;SDS011;32978;53.586;10.052;2023-05-10T22:38:40;21.45;;;15.93;;
47239;SDS011;32978;53.586;10.052;2023-05-10T22:43:37;17.67;;;13.75;;
47239;SDS011;32978;53.586;10.052;2023-05-10T22:48:33;19.75;;;14.50;;
47239;SDS011;32978;53.586;10.052;2023-05-10T22:53:30;20.70;;;15.90;;
47239;SDS011;32978;53.586;10.052;2023-05-10T22:58:27;19.83;;;14.80;;
47239;SDS011;32978;53.586;10.052;2023-05-10T23:03:23;23.45;;;15.88;;
47239;SDS011;32978;53.586;10.052;2023-05-10T23:08:20;21.27;;;15.50;;
47239;SDS011;32978;53.586;10.052;2023-05-10T23:13:20;25.92;;;17.92;;
47239;SDS011;32978;53.586;10.052;2023-05-10T23:18:18;22.52;;;16.23;;
47239;SDS011;32978;53.586;10.052;2023-05-10T23:23:14;26.08;;;17.52;;
47239;SDS011;32978;53.586;10.052;2023-05-10T23:28:11;24.90;;;16.40;;
47239;SDS011;32978;53.586;10.052;2023-05-10T23:33:08;25.45;;;17.17;;
47239;SDS011;32978;53.586;10.052;2023-05-10T23:38:04;24.27;;;16.30;;
47239;SDS011;32978;53.586;10.052;2023-05-10T23:43:01;26.30;;;17.33;;
47239;SDS011;32978;53.586;10.052;2023-05-10T23:47:57;24.55;;;17.25;;
47239;SDS011;32978;53.586;10.052;2023-05-10T23:52:54;30.13;;;18.55;;
47239;SDS011;32978;53.586;10.052;2023-05-10T23:57:50;26.83;;;16.90;;
